sensor_id;sensor_type;location;lat;lon;timestamp;pressure;altitude;pressure_sealevel;temperature;humidity
74637;BME280;63141;54.616;39.754;2022-10-30T00:00:30;98520.34;;;23.77;37.99
74637;BME280;63141;54.616;39.754;2022-10-30T00:03:37;98517.47;;;23.80;37.95
74637;BME280;63141;54.616;39.754;2022-10-30T00:06:38;98516.59;;;23.80;38.12
74637;BME280;63141;54.616;39.754;2022-10-30T00:09:39;98497.28;;;23.78;37.99
74637;BME280;63141;54.616;39.754;2022-10-30T00:12:41;98501.63;;;23.79;38.11
74637;BME280;63141;54.616;39.754;2022-10-30T00:16:03;98499.81;;;23.79;38.18
74637;BME280;63141;54.616;39.754;2022-10-30T00:19:05;98493.66;;;23.79;38.08
74637;BME280;63141;54.616;39.754;2022-10-30T00:22:06;98490.16;;;23.78;38.19
74637;BME280;63141;54.616;39.754;2022-10-30T00:25:08;98479.53;;;23.78;38.09
74637;BME280;63141;54.616;39.754;2022-10-30T00:28:09;98471.53;;;23.78;37.96
74637;BME280;63141;54.616;39.754;2022-10-30T00:31:10;98467.91;;;23.79;37.92
74637;BME280;63141;54.616;39.754;2022-10-30T00:34:12;98460.78;;;23.80;38.07
74637;BME280;63141;54.616;39.754;2022-10-30T00:37:13;98458.13;;;23.80;38.02
74637;BME280;63141;54.616;39.754;2022-10-30T00:40:16;98447.63;;;23.78;38.26
74637;BME280;63141;54.616;39.754;2022-10-30T00:43:44;98443.03;;;23.80;37.92
74637;BME280;63141;54.616;39.754;2022-10-30T00:46:46;98429.00;;;23.78;37.99
74637;BME280;63141;54.616;39.754;2022-10-30T00:49:57;98425.38;;;23.79;37.97
74637;BME280;63141;54.616;39.754;2022-10-30T00:53:06;98425.38;;;23.79;37.97
74637;BME280;63141;54.616;39.754;2022-10-30T00:56:10;98420.91;;;23.80;38.06
74637;BME280;63141;54.616;39.754;2022-10-30T00:59:17;98416.47;;;23.80;38.03
74637;BME280;63141;54.616;39.754;2022-10-30T01:02:21;98411.13;;;23.80;38.10
74637;BME280;63141;54.616;39.754;2022-10-30T01:05:29;98411.13;;;23.80;38.14
74637;BME280;63141;54.616;39.754;2022-10-30T01:08:32;98405.81;;;23.80;38.00
74637;BME280;63141;54.616;39.754;2022-10-30T01:11:34;98406.66;;;23.81;38.23
74637;BME280;63141;54.616;39.754;2022-10-30T01:14:38;98399.78;;;23.78;38.14
74637;BME280;63141;54.616;39.754;2022-10-30T01:21:40;98395.19;;;23.80;38.26
74637;BME280;63141;54.616;39.754;2022-10-30T01:35:09;98382.84;;;23.79;38.20
74637;BME280;63141;54.616;39.754;2022-10-30T01:38:35;98393.38;;;23.81;38.06
74637;BME280;63141;54.616;39.754;2022-10-30T01:41:38;98388.16;;;23.79;38.11
74637;BME280;63141;54.616;39.754;2022-10-30T01:44:40;98393.47;;;23.79;38.17
74637;BME280;63141;54.616;39.754;2022-10-30T01:47:57;98399.63;;;23.80;37.85
74637;BME280;63141;54.616;39.754;2022-10-30T01:51:33;98389.88;;;23.80;37.95
74637;BME280;63141;54.616;39.754;2022-10-30T01:58:07;98374.88;;;23.79;37.94
74637;BME280;63141;54.616;39.754;2022-10-30T02:01:16;98368.59;;;23.80;38.00
74637;BME280;63141;54.616;39.754;2022-10-30T02:04:18;98372.22;;;23.79;38.07
74637;BME280;63141;54.616;39.754;2022-10-30T02:07:24;98366.06;;;23.79;37.91
74637;BME280;63141;54.616;39.754;2022-10-30T02:10:29;98376.56;;;23.80;38.21
74637;BME280;63141;54.616;39.754;2022-10-30T02:13:33;98373.91;;;23.80;38.05
74637;BME280;63141;54.616;39.754;2022-10-30T02:16:38;98378.25;;;23.81;37.91
74637;BME280;63141;54.616;39.754;2022-10-30T02:19:41;98375.59;;;23.81;37.88
74637;BME280;63141;54.616;39.754;2022-10-30T02:22:43;98370.28;;;23.81;37.73
74637;BME280;63141;54.616;39.754;2022-10-30T02:25:44;98358.81;;;23.81;38.06
74637;BME280;63141;54.616;39.754;2022-10-30T02:28:46;98356.16;;;23.81;37.99
74637;BME280;63141;54.616;39.754;2022-10-30T02:31:48;98352.66;;;23.80;38.03
74637;BME280;63141;54.616;39.754;2022-10-30T02:34:49;98349.03;;;23.81;37.87
74637;BME280;63141;54.616;39.754;2022-10-30T02:37:51;98348.19;;;23.81;37.94
74637;BME280;63141;54.616;39.754;2022-10-30T02:40:53;98349.03;;;23.81;37.84
74637;BME280;63141;54.616;39.754;2022-10-30T02:43:54;98345.41;;;23.82;37.93
74637;BME280;63141;54.616;39.754;2022-10-30T02:46:56;98343.69;;;23.81;38.18
74637;BME280;63141;54.616;39.754;2022-10-30T02:49:58;98329.47;;;23.82;38.04
74637;BME280;63141;54.616;39.754;2022-10-30T02:53:00;98322.44;;;23.81;37.96
74637;BME280;63141;54.616;39.754;2022-10-30T02:56:06;98328.50;;;23.83;38.09
74637;BME280;63141;54.616;39.754;2022-10-30T02:59:08;98321.50;;;23.82;37.94
74637;BME280;63141;54.616;39.754;2022-10-30T03:02:10;98321.50;;;23.82;37.84
74637;BME280;63141;54.616;39.754;2022-10-30T03:05:16;98322.22;;;23.85;37.93
74637;BME280;63141;54.616;39.754;2022-10-30T03:08:17;98312.53;;;23.83;37.90
74637;BME280;63141;54.616;39.754;2022-10-30T03:11:19;98317.75;;;23.85;38.13
74637;BME280;63141;54.616;39.754;2022-10-30T03:14:21;98306.28;;;23.85;37.93
74637;BME280;63141;54.616;39.754;2022-10-30T03:17:22;98304.44;;;23.85;37.96
74637;BME280;63141;54.616;39.754;2022-10-30T03:20:23;98300.94;;;23.85;38.08
74637;BME280;63141;54.616;39.754;2022-10-30T03:23:26;98295.63;;;23.85;38.02
74637;BME280;63141;54.616;39.754;2022-10-30T03:26:28;98300.94;;;23.85;38.24
74637;BME280;63141;54.616;39.754;2022-10-30T03:29:36;98295.63;;;23.85;38.09
74637;BME280;63141;54.616;39.754;2022-10-30T03:32:38;98301.78;;;23.85;38.00
74637;BME280;63141;54.616;39.754;2022-10-30T03:35:45;98304.31;;;23.87;38.22
74637;BME280;63141;54.616;39.754;2022-10-30T03:38:46;98309.78;;;23.85;38.05
74637;BME280;63141;54.616;39.754;2022-10-30T03:41:52;98300.94;;;23.85;37.99
74637;BME280;63141;54.616;39.754;2022-10-30T03:44:53;98302.63;;;23.86;37.82
74637;BME280;63141;54.616;39.754;2022-10-30T03:47:54;98305.28;;;23.86;38.11
74637;BME280;63141;54.616;39.754;2022-10-30T03:50:58;98309.63;;;23.87;37.81
74637;BME280;63141;54.616;39.754;2022-10-30T03:54:00;98302.63;;;23.86;37.94
74637;BME280;63141;54.616;39.754;2022-10-30T03:57:02;98301.78;;;23.85;37.88
74637;BME280;63141;54.616;39.754;2022-10-30T04:00:14;98302.63;;;23.86;37.88
74637;BME280;63141;54.616;39.754;2022-10-30T04:03:15;98294.66;;;23.86;37.77
74637;BME280;63141;54.616;39.754;2022-10-30T04:06:19;98292.00;;;23.86;37.97
74637;BME280;63141;54.616;39.754;2022-10-30T04:09:21;98298.16;;;23.86;38.17
74637;BME280;63141;54.616;39.754;2022-10-30T04:12:22;98302.63;;;23.86;38.11
74637;BME280;63141;54.616;39.754;2022-10-30T04:15:24;98299.00;;;23.87;38.11
74637;BME280;63141;54.616;39.754;2022-10-30T04:18:26;98307.94;;;23.86;38.17
74637;BME280;63141;54.616;39.754;2022-10-30T04:21:29;98303.47;;;23.86;38.16
74637;BME280;63141;54.616;39.754;2022-10-30T04:24:31;98299.97;;;23.86;37.92
74637;BME280;63141;54.616;39.754;2022-10-30T04:27:41;98299.88;;;23.87;38.07
74637;BME280;63141;54.616;39.754;2022-10-30T04:30:43;98299.00;;;23.87;37.92
74637;BME280;63141;54.616;39.754;2022-10-30T04:33:48;98299.00;;;23.87;38.07
74637;BME280;63141;54.616;39.754;2022-10-30T04:36:49;98299.97;;;23.86;38.18
74637;BME280;63141;54.616;39.754;2022-10-30T04:39:51;98298.06;;;23.88;37.82
74637;BME280;63141;54.616;39.754;2022-10-30T04:42:58;98305.19;;;23.87;37.87
74637;BME280;63141;54.616;39.754;2022-10-30T04:46:03;98303.38;;;23.88;37.97
74637;BME280;63141;54.616;39.754;2022-10-30T04:49:06;98301.66;;;23.87;37.85
74637;BME280;63141;54.616;39.754;2022-10-30T04:52:07;98300.72;;;23.88;37.83
74637;BME280;63141;54.616;39.754;2022-10-30T04:55:10;98294.56;;;23.87;38.11
74637;BME280;63141;54.616;39.754;2022-10-30T04:58:12;98291.03;;;23.87;37.96
74637;BME280;63141;54.616;39.754;2022-10-30T05:01:16;98289.25;;;23.87;38.11
74637;BME280;63141;54.616;39.754;2022-10-30T05:04:23;98290.91;;;23.88;37.86
74637;BME280;63141;54.616;39.754;2022-10-30T05:07:24;98284.75;;;23.88;37.90
74637;BME280;63141;54.616;39.754;2022-10-30T05:10:27;98283.91;;;23.87;38.02
74637;BME280;63141;54.616;39.754;2022-10-30T05:13:29;98284.75;;;23.88;37.91
74637;BME280;63141;54.616;39.754;2022-10-30T05:16:31;98284.75;;;23.88;37.87
74637;BME280;63141;54.616;39.754;2022-10-30T05:19:34;98290.06;;;23.88;38.21
74637;BME280;63141;54.616;39.754;2022-10-30T05:22:35;98289.25;;;23.87;37.90
74637;BME280;63141;54.616;39.754;2022-10-30T05:25:37;98292.72;;;23.88;37.91
74637;BME280;63141;54.616;39.754;2022-10-30T05:28:41;98284.75;;;23.88;38.20
74637;BME280;63141;54.616;39.754;2022-10-30T05:31:43;98297.06;;;23.89;37.68
74637;BME280;63141;54.616;39.754;2022-10-30T05:34:50;98297.06;;;23.89;38.09
74637;BME280;63141;54.616;39.754;2022-10-30T05:37:55;98290.06;;;23.88;38.15
74637;BME280;63141;54.616;39.754;2022-10-30T05:40:57;98297.06;;;23.89;37.83
74637;BME280;63141;54.616;39.754;2022-10-30T05:43:59;98301.44;;;23.90;38.12
74637;BME280;63141;54.616;39.754;2022-10-30T05:47:00;98298.78;;;23.90;38.03
74637;BME280;63141;54.616;39.754;2022-10-30T05:50:05;98290.81;;;23.90;38.07
74637;BME280;63141;54.616;39.754;2022-10-30T05:53:08;98296.97;;;23.90;37.83
74637;BME280;63141;54.616;39.754;2022-10-30T05:56:10;98298.78;;;23.90;37.83
74637;BME280;63141;54.616;39.754;2022-10-30T05:59:12;98302.38;;;23.89;38.07
74637;BME280;63141;54.616;39.754;2022-10-30T06:02:13;98306.75;;;23.90;37.77
74637;BME280;63141;54.616;39.754;2022-10-30T06:05:21;98308.44;;;23.91;38.07
74637;BME280;63141;54.616;39.754;2022-10-30T06:08:23;98312.91;;;23.90;37.77
74637;BME280;63141;54.616;39.754;2022-10-30T06:11:28;98320.06;;;23.90;37.96
74637;BME280;63141;54.616;39.754;2022-10-30T06:14:32;98320.91;;;23.90;38.15
74637;BME280;63141;54.616;39.754;2022-10-30T06:17:34;98326.22;;;23.90;37.81
74637;BME280;63141;54.616;39.754;2022-10-30T06:21:07;98318.25;;;23.90;37.95
74637;BME280;63141;54.616;39.754;2022-10-30T06:24:18;98317.41;;;23.90;37.71
74637;BME280;63141;54.616;39.754;2022-10-30T06:27:33;98314.59;;;23.91;37.78
74637;BME280;63141;54.616;39.754;2022-10-30T06:30:36;98311.94;;;23.91;37.86
74637;BME280;63141;54.616;39.754;2022-10-30T06:33:38;98303.84;;;23.93;37.99
74637;BME280;63141;54.616;39.754;2022-10-30T06:36:39;98308.34;;;23.92;37.78
74637;BME280;63141;54.616;39.754;2022-10-30T06:39:41;98304.84;;;23.92;37.83
74637;BME280;63141;54.616;39.754;2022-10-30T06:43:09;98306.53;;;23.93;37.68
74637;BME280;63141;54.616;39.754;2022-10-30T06:46:25;98307.34;;;23.93;37.87
74637;BME280;63141;54.616;39.754;2022-10-30T06:49:27;98311.72;;;23.94;37.83
74637;BME280;63141;54.616;39.754;2022-10-30T06:52:28;98317.03;;;23.94;37.99
74637;BME280;63141;54.616;39.754;2022-10-30T06:55:30;98314.50;;;23.93;37.95
74637;BME280;63141;54.616;39.754;2022-10-30T06:58:54;98328.53;;;23.95;37.99
74637;BME280;63141;54.616;39.754;2022-10-30T07:02:10;98328.53;;;23.95;37.59
74637;BME280;63141;54.616;39.754;2022-10-30T07:05:27;98319.56;;;23.96;37.81
74637;BME280;63141;54.616;39.754;2022-10-30T07:08:29;98322.38;;;23.94;37.75
74637;BME280;63141;54.616;39.754;2022-10-30T07:11:32;98324.88;;;23.96;37.70
74637;BME280;63141;54.616;39.754;2022-10-30T07:15:02;98326.59;;;23.97;37.76
74637;BME280;63141;54.616;39.754;2022-10-30T07:18:13;98331.91;;;23.97;37.98
74637;BME280;63141;54.616;39.754;2022-10-30T07:21:15;98331.06;;;23.96;37.72
74637;BME280;63141;54.616;39.754;2022-10-30T07:24:16;98333.59;;;23.98;37.75
74637;BME280;63141;54.616;39.754;2022-10-30T07:27:49;98330.00;;;23.99;37.96
74637;BME280;63141;54.616;39.754;2022-10-30T07:31:16;98328.28;;;23.98;37.91
74637;BME280;63141;54.616;39.754;2022-10-30T07:34:23;98333.59;;;23.98;37.91
74637;BME280;63141;54.616;39.754;2022-10-30T07:37:43;98334.47;;;23.98;37.78
74637;BME280;63141;54.616;39.754;2022-10-30T07:40:53;98324.66;;;23.99;37.85
74637;BME280;63141;54.616;39.754;2022-10-30T07:44:27;98328.28;;;23.98;37.59
74637;BME280;63141;54.616;39.754;2022-10-30T07:47:47;98330.09;;;23.97;37.70
74637;BME280;63141;54.616;39.754;2022-10-30T07:50:53;98326.59;;;23.97;37.66
74637;BME280;63141;54.616;39.754;2022-10-30T07:53:54;98336.25;;;23.98;37.86
74637;BME280;63141;54.616;39.754;2022-10-30T07:56:58;98332.66;;;23.99;37.76
74637;BME280;63141;54.616;39.754;2022-10-30T08:00:26;98330.84;;;23.99;37.83
74637;BME280;63141;54.616;39.754;2022-10-30T08:03:40;98331.66;;;24.00;37.56
74637;BME280;63141;54.616;39.754;2022-10-30T08:06:48;98314.03;;;23.99;37.68
74637;BME280;63141;54.616;39.754;2022-10-30T08:09:50;98322.75;;;24.01;37.76
74637;BME280;63141;54.616;39.754;2022-10-30T08:12:51;98321.03;;;24.00;37.75
74637;BME280;63141;54.616;39.754;2022-10-30T08:15:53;98315.72;;;24.00;37.49
74637;BME280;63141;54.616;39.754;2022-10-30T08:18:54;98309.44;;;24.01;37.64
74637;BME280;63141;54.616;39.754;2022-10-30T08:21:59;98309.44;;;24.01;37.78
74637;BME280;63141;54.616;39.754;2022-10-30T08:25:02;98304.88;;;24.03;37.50
74637;BME280;63141;54.616;39.754;2022-10-30T08:28:05;98299.53;;;24.03;37.60
74637;BME280;63141;54.616;39.754;2022-10-30T08:31:14;98308.47;;;24.02;37.47
74637;BME280;63141;54.616;39.754;2022-10-30T08:34:34;98296.00;;;24.02;37.74
74637;BME280;63141;54.616;39.754;2022-10-30T08:37:40;98292.50;;;24.02;37.44
74637;BME280;63141;54.616;39.754;2022-10-30T08:40:41;98301.34;;;24.02;37.48
74637;BME280;63141;54.616;39.754;2022-10-30T08:43:43;98297.84;;;24.02;37.64
74637;BME280;63141;54.616;39.754;2022-10-30T08:46:44;98292.50;;;24.02;37.44
74637;BME280;63141;54.616;39.754;2022-10-30T08:49:45;98294.34;;;24.01;37.74
74637;BME280;63141;54.616;39.754;2022-10-30T08:52:49;98297.84;;;24.02;37.67
74637;BME280;63141;54.616;39.754;2022-10-30T08:55:51;98291.69;;;24.01;37.42
74637;BME280;63141;54.616;39.754;2022-10-30T08:59:00;98291.56;;;24.03;37.55
74637;BME280;63141;54.616;39.754;2022-10-30T09:02:01;98292.50;;;24.02;37.63
74637;BME280;63141;54.616;39.754;2022-10-30T09:05:30;98290.84;;;24.01;37.54
74637;BME280;63141;54.616;39.754;2022-10-30T09:08:52;98283.69;;;24.01;37.53
74637;BME280;63141;54.616;39.754;2022-10-30T09:12:04;98281.03;;;24.01;37.69
74637;BME280;63141;54.616;39.754;2022-10-30T09:15:11;98274.88;;;24.01;37.40
74637;BME280;63141;54.616;39.754;2022-10-30T09:18:24;98277.53;;;24.01;37.82
74637;BME280;63141;54.616;39.754;2022-10-30T09:21:25;98274.88;;;24.01;37.67
74637;BME280;63141;54.616;39.754;2022-10-30T09:24:28;98270.41;;;24.01;37.76
74637;BME280;63141;54.616;39.754;2022-10-30T09:27:38;98271.25;;;24.02;37.54
74637;BME280;63141;54.616;39.754;2022-10-30T09:30:41;98265.94;;;24.02;37.48
74637;BME280;63141;54.616;39.754;2022-10-30T09:33:45;98259.78;;;24.01;37.64
74637;BME280;63141;54.616;39.754;2022-10-30T09:37:24;98261.44;;;24.02;37.74
74637;BME280;63141;54.616;39.754;2022-10-30T09:43:48;98245.50;;;24.02;37.37
74637;BME280;63141;54.616;39.754;2022-10-30T09:47:06;98250.81;;;24.02;37.44
74637;BME280;63141;54.616;39.754;2022-10-30T09:50:23;98246.38;;;24.03;37.64
74637;BME280;63141;54.616;39.754;2022-10-30T10:00:17;98240.06;;;24.04;37.47
74637;BME280;63141;54.616;39.754;2022-10-30T10:07:24;98223.38;;;24.02;37.44
74637;BME280;63141;54.616;39.754;2022-10-30T10:10:44;98234.00;;;24.02;37.62
74637;BME280;63141;54.616;39.754;2022-10-30T10:13:55;98223.38;;;24.02;37.63
74637;BME280;63141;54.616;39.754;2022-10-30T10:17:01;98240.19;;;24.02;37.75
74637;BME280;63141;54.616;39.754;2022-10-30T10:20:11;98246.38;;;24.03;37.66
74637;BME280;63141;54.616;39.754;2022-10-30T10:26:46;98236.56;;;24.03;37.47
74637;BME280;63141;54.616;39.754;2022-10-30T10:30:16;98234.75;;;24.04;37.79
74637;BME280;63141;54.616;39.754;2022-10-30T10:53:10;98199.34;;;24.03;37.43
74637;BME280;63141;54.616;39.754;2022-10-30T10:56:14;98200.28;;;24.02;37.44
74637;BME280;63141;54.616;39.754;2022-10-30T11:05:51;98217.81;;;24.05;37.60
74637;BME280;63141;54.616;39.754;2022-10-30T11:09:04;98215.16;;;24.05;37.47
74637;BME280;63141;54.616;39.754;2022-10-30T11:12:12;98223.13;;;24.05;37.53
74637;BME280;63141;54.616;39.754;2022-10-30T11:15:18;98228.44;;;24.05;37.58
74637;BME280;63141;54.616;39.754;2022-10-30T11:18:21;98241.75;;;24.05;37.43
74637;BME280;63141;54.616;39.754;2022-10-30T11:21:24;98242.63;;;24.06;37.43
74637;BME280;63141;54.616;39.754;2022-10-30T11:24:33;98228.44;;;24.05;37.49
74637;BME280;63141;54.616;39.754;2022-10-30T11:27:35;98212.50;;;24.05;37.55
74637;BME280;63141;54.616;39.754;2022-10-30T11:30:37;98225.78;;;24.05;37.35
74637;BME280;63141;54.616;39.754;2022-10-30T11:33:38;98228.44;;;24.05;37.36
74637;BME280;63141;54.616;39.754;2022-10-30T11:36:39;98215.16;;;24.05;37.63
74637;BME280;63141;54.616;39.754;2022-10-30T11:39:41;98213.38;;;24.06;37.45
74637;BME280;63141;54.616;39.754;2022-10-30T11:42:45;98208.16;;;24.04;37.50
74637;BME280;63141;54.616;39.754;2022-10-30T11:45:48;98211.66;;;24.04;37.39
74637;BME280;63141;54.616;39.754;2022-10-30T11:48:50;98211.66;;;24.04;37.17
74637;BME280;63141;54.616;39.754;2022-10-30T11:51:54;98212.50;;;24.05;37.38
74637;BME280;63141;54.616;39.754;2022-10-30T11:55:22;98215.03;;;24.07;37.32
74637;BME280;63141;54.616;39.754;2022-10-30T11:58:29;98208.88;;;24.06;37.53
74637;BME280;63141;54.616;39.754;2022-10-30T12:01:35;98201.84;;;24.05;37.32
74637;BME280;63141;54.616;39.754;2022-10-30T12:04:42;98209.84;;;24.05;37.42
74637;BME280;63141;54.616;39.754;2022-10-30T12:07:43;98200.91;;;24.06;37.39
74637;BME280;63141;54.616;39.754;2022-10-30T12:10:58;98207.06;;;24.07;37.09
74637;BME280;63141;54.616;39.754;2022-10-30T12:14:00;98203.56;;;24.06;37.46
74637;BME280;63141;54.616;39.754;2022-10-30T12:17:02;98208.88;;;24.06;37.55
74637;BME280;63141;54.616;39.754;2022-10-30T12:20:05;98204.41;;;24.07;37.45
74637;BME280;63141;54.616;39.754;2022-10-30T12:23:09;98208.88;;;24.06;37.48
74637;BME280;63141;54.616;39.754;2022-10-30T12:26:11;98229.31;;;24.06;37.41
74637;BME280;63141;54.616;39.754;2022-10-30T12:29:17;98214.19;;;24.06;37.53
74637;BME280;63141;54.616;39.754;2022-10-30T12:32:20;98219.53;;;24.06;37.32
74637;BME280;63141;54.616;39.754;2022-10-30T12:35:47;98222.06;;;24.08;37.45
74637;BME280;63141;54.616;39.754;2022-10-30T12:39:04;98216.75;;;24.08;37.42
74637;BME280;63141;54.616;39.754;2022-10-30T12:42:17;98229.19;;;24.07;37.18
74637;BME280;63141;54.616;39.754;2022-10-30T12:45:23;98238.97;;;24.07;37.32
74637;BME280;63141;54.616;39.754;2022-10-30T12:48:32;98247.78;;;24.07;37.20
74637;BME280;63141;54.616;39.754;2022-10-30T12:58:37;98223.84;;;24.07;37.41
74637;BME280;63141;54.616;39.754;2022-10-30T13:11:38;98263.75;;;24.07;37.26
74637;BME280;63141;54.616;39.754;2022-10-30T13:18:22;98273.53;;;24.07;37.22
74637;BME280;63141;54.616;39.754;2022-10-30T13:28:13;98271.25;;;24.02;36.97
74637;BME280;63141;54.616;39.754;2022-10-30T13:31:24;98290.84;;;24.01;37.21
74637;BME280;63141;54.616;39.754;2022-10-30T13:41:42;98298.91;;;23.99;36.85
74637;BME280;63141;54.616;39.754;2022-10-30T13:48:27;98298.69;;;24.02;37.75
74637;BME280;63141;54.616;39.754;2022-10-30T13:51:43;98299.41;;;24.04;40.00
74637;BME280;63141;54.616;39.754;2022-10-30T14:04:29;98315.00;;;24.09;42.78
74637;BME280;63141;54.616;39.754;2022-10-30T14:11:06;98336.28;;;24.09;43.00
74637;BME280;63141;54.616;39.754;2022-10-30T14:14:26;98323.97;;;24.08;42.82
74637;BME280;63141;54.616;39.754;2022-10-30T14:17:28;98325.91;;;24.06;42.92
74637;BME280;63141;54.616;39.754;2022-10-30T14:20:29;98341.84;;;24.06;42.66
74637;BME280;63141;54.616;39.754;2022-10-30T14:23:34;98343.66;;;24.06;42.68
74637;BME280;63141;54.616;39.754;2022-10-30T14:26:36;98347.16;;;24.06;42.32
74637;BME280;63141;54.616;39.754;2022-10-30T14:29:45;98349.81;;;24.06;42.52
74637;BME280;63141;54.616;39.754;2022-10-30T14:32:49;98346.19;;;24.07;45.94
74637;BME280;63141;54.616;39.754;2022-10-30T14:39:41;98344.16;;;24.11;46.71
74637;BME280;63141;54.616;39.754;2022-10-30T14:42:53;98351.91;;;24.14;46.62
74637;BME280;63141;54.616;39.754;2022-10-30T14:46:09;98357.09;;;24.15;48.36
74637;BME280;63141;54.616;39.754;2022-10-30T14:56:07;98342.63;;;24.19;51.86
74637;BME280;63141;54.616;39.754;2022-10-30T15:02:35;98345.28;;;24.19;51.71
74637;BME280;63141;54.616;39.754;2022-10-30T15:09:26;98351.53;;;24.18;50.61
74637;BME280;63141;54.616;39.754;2022-10-30T15:15:58;98344.75;;;24.14;49.96
74637;BME280;63141;54.616;39.754;2022-10-30T15:19:06;98348.41;;;24.13;49.67
74637;BME280;63141;54.616;39.754;2022-10-30T15:22:15;98346.72;;;24.12;49.05
74637;BME280;63141;54.616;39.754;2022-10-30T15:25:19;98348.63;;;24.10;48.72
74637;BME280;63141;54.616;39.754;2022-10-30T15:28:26;98339.69;;;24.11;48.42
74637;BME280;63141;54.616;39.754;2022-10-30T15:31:28;98338.00;;;24.10;47.95
74637;BME280;63141;54.616;39.754;2022-10-30T15:34:31;98331.81;;;24.10;47.82
74637;BME280;63141;54.616;39.754;2022-10-30T15:37:35;98339.22;;;24.17;47.72
74637;BME280;63141;54.616;39.754;2022-10-30T15:40:37;98345.75;;;24.24;47.45
74637;BME280;63141;54.616;39.754;2022-10-30T15:43:40;98337.19;;;24.32;47.44
74637;BME280;63141;54.616;39.754;2022-10-30T15:46:46;98329.22;;;24.43;46.60
74637;BME280;63141;54.616;39.754;2022-10-30T15:49:53;98333.97;;;24.51;46.18
74637;BME280;63141;54.616;39.754;2022-10-30T15:52:55;98346.78;;;24.57;46.48
74637;BME280;63141;54.616;39.754;2022-10-30T15:55:57;98337.59;;;24.61;45.86
74637;BME280;63141;54.616;39.754;2022-10-30T15:59:02;98340.75;;;24.66;45.51
74637;BME280;63141;54.616;39.754;2022-10-30T16:02:19;98351.75;;;24.73;45.38
74637;BME280;63141;54.616;39.754;2022-10-30T16:05:26;98354.06;;;24.78;45.86
74637;BME280;63141;54.616;39.754;2022-10-30T16:08:28;98342.94;;;24.84;45.50
74637;BME280;63141;54.616;39.754;2022-10-30T16:11:29;98354.88;;;24.90;45.23
74637;BME280;63141;54.616;39.754;2022-10-30T16:14:30;98368.81;;;24.93;45.06
74637;BME280;63141;54.616;39.754;2022-10-30T16:17:33;98426.94;;;24.99;45.21
74637;BME280;63141;54.616;39.754;2022-10-30T16:20:35;98443.28;;;25.06;44.82
74637;BME280;63141;54.616;39.754;2022-10-30T16:23:39;98432.13;;;25.12;45.00
74637;BME280;63141;54.616;39.754;2022-10-30T16:26:43;98436.25;;;25.16;43.98
74637;BME280;63141;54.616;39.754;2022-10-30T16:29:46;98437.84;;;25.19;43.18
74637;BME280;63141;54.616;39.754;2022-10-30T16:32:51;98426.34;;;25.18;42.66
74637;BME280;63141;54.616;39.754;2022-10-30T16:35:55;98428.88;;;25.08;42.14
74637;BME280;63141;54.616;39.754;2022-10-30T16:38:57;98452.59;;;25.00;42.05
74637;BME280;63141;54.616;39.754;2022-10-30T16:41:59;98466.38;;;24.94;41.26
74637;BME280;63141;54.616;39.754;2022-10-30T16:48:24;98470.13;;;24.80;40.95
74637;BME280;63141;54.616;39.754;2022-10-30T16:51:28;98503.41;;;24.75;40.93
74637;BME280;63141;54.616;39.754;2022-10-30T16:54:34;98499.50;;;24.67;40.56
74637;BME280;63141;54.616;39.754;2022-10-30T16:57:42;98477.72;;;24.62;40.39
74637;BME280;63141;54.616;39.754;2022-10-30T17:00:49;98472.88;;;24.56;40.21
74637;BME280;63141;54.616;39.754;2022-10-30T17:03:52;98474.06;;;24.52;40.33
74637;BME280;63141;54.616;39.754;2022-10-30T17:07:06;98470.66;;;24.50;40.04
74637;BME280;63141;54.616;39.754;2022-10-30T17:16:54;98468.66;;;24.41;39.35
74637;BME280;63141;54.616;39.754;2022-10-30T17:20:00;98462.59;;;24.39;39.42
74637;BME280;63141;54.616;39.754;2022-10-30T17:23:20;98458.47;;;24.35;39.33
74637;BME280;63141;54.616;39.754;2022-10-30T17:26:21;98462.13;;;24.34;39.08
74637;BME280;63141;54.616;39.754;2022-10-30T17:32:43;98468.75;;;24.28;39.08
74637;BME280;63141;54.616;39.754;2022-10-30T17:35:45;98469.81;;;24.25;39.42
74637;BME280;63141;54.616;39.754;2022-10-30T17:38:46;98463.66;;;24.25;39.45
74637;BME280;63141;54.616;39.754;2022-10-30T17:41:55;98471.78;;;24.23;39.26
74637;BME280;63141;54.616;39.754;2022-10-30T17:44:57;98464.72;;;24.22;39.26
74637;BME280;63141;54.616;39.754;2022-10-30T17:47:58;98471.13;;;24.20;39.37
74637;BME280;63141;54.616;39.754;2022-10-30T17:50:59;98463.25;;;24.18;39.35
74637;BME280;63141;54.616;39.754;2022-10-30T17:54:01;98466.06;;;24.17;39.27
74637;BME280;63141;54.616;39.754;2022-10-30T17:57:02;98473.16;;;24.16;39.04
74637;BME280;63141;54.616;39.754;2022-10-30T18:00:07;98468.81;;;24.15;39.25
74637;BME280;63141;54.616;39.754;2022-10-30T18:03:12;98460.09;;;24.13;39.19
74637;BME280;63141;54.616;39.754;2022-10-30T18:06:19;98475.09;;;24.14;39.16
74637;BME280;63141;54.616;39.754;2022-10-30T18:09:21;98473.50;;;24.12;38.91
74637;BME280;63141;54.616;39.754;2022-10-30T18:12:22;98462.13;;;24.10;39.00
74637;BME280;63141;54.616;39.754;2022-10-30T18:15:34;98465.66;;;24.10;39.17
74637;BME280;63141;54.616;39.754;2022-10-30T18:18:36;98468.44;;;24.09;39.23
74637;BME280;63141;54.616;39.754;2022-10-30T18:21:38;98467.59;;;24.08;38.92
74637;BME280;63141;54.616;39.754;2022-10-30T18:24:39;98470.25;;;24.08;38.99
74637;BME280;63141;54.616;39.754;2022-10-30T18:27:40;98465.88;;;24.07;39.01
74637;BME280;63141;54.616;39.754;2022-10-30T18:30:50;98484.63;;;24.06;38.92
74637;BME280;63141;54.616;39.754;2022-10-30T18:33:52;98480.16;;;24.06;39.07
74637;BME280;63141;54.616;39.754;2022-10-30T18:36:53;98479.41;;;24.04;38.94
74637;BME280;63141;54.616;39.754;2022-10-30T18:39:54;98478.44;;;24.05;39.23